KOKM

Okmulgee Regional Airport

Okmulgee, Oklahoma, USA
METAR KOKM 220355Z AUTO 16018G29KT 10SM OVC033 08/00 A2986 RMK AO2 T00781001
Observed Flight Rules
Jan-22 @ 03:55 UTC (19 minutes ago) Visual Flight Rules
Wind Visibility Clouds
160° at 18 knots
 Gusting to 29 knots
10 miles
  • Overcast at 3,300' AGL
Temperatures Readings
Current 8°C / 46°F
Dewpoint -0°C / 32°F
Humidity 57%
Altimeter 29.86" Hg
Pressure 1011.22 hPa
Elevation 220
METAR KOKM 220355Z AUTO 16018G29KT 10SM OVC033 08/00 A2986 RMK AO2 T00781001
Observed Flight Rules
Jan-22 @ 03:55 UTC
(19 minutes ago)
VFR
Wind Visibility
160° at 18 knots
 Gusting to 29 knots
10 miles
Clouds
  • Overcast at 3,300' AGL
Temperature Dewpoint
8°C / 46°F -0°C / 32°F
Humidity Altimeter Pressure
57% 29.86" Hg 1011.22 hPa